createdAt,value
2016-05-18T00:00:05.588Z,1010
2016-05-18T00:01:05.590Z,1010.02
2016-05-18T00:02:05.578Z,1010.01
2016-05-18T00:03:05.580Z,1009.98
2016-05-18T00:04:05.567Z,1009.99
2016-05-18T00:05:05.570Z,1010.01
2016-05-18T00:06:05.557Z,1009.97
2016-05-18T00:07:05.560Z,1010
2016-05-18T00:08:05.562Z,1009.97
2016-05-18T00:09:05.549Z,1010.01
2016-05-18T00:10:05.536Z,1009.98
2016-05-18T00:11:05.539Z,1009.99
2016-05-18T00:12:05.557Z,1009.95
2016-05-18T00:13:05.529Z,1009.95
2016-05-18T00:14:05.532Z,1009.96
2016-05-18T00:15:05.518Z,1009.93
2016-05-18T00:16:05.521Z,1009.91
2016-05-18T00:17:05.509Z,1009.93
2016-05-18T00:18:05.512Z,1009.91
2016-05-18T00:19:05.514Z,1009.91
2016-05-18T00:20:05.501Z,1009.9
2016-05-18T00:21:05.503Z,1009.89
2016-05-18T00:22:05.490Z,1009.85
2016-05-18T00:23:05.493Z,1009.86
2016-05-18T00:24:05.480Z,1009.87
2016-05-18T00:25:05.484Z,1009.89
2016-05-18T00:26:05.501Z,1009.92
2016-05-18T00:27:05.472Z,1009.9
2016-05-18T00:28:06.428Z,1009.89
2016-05-18T00:29:05.462Z,1009.87
2016-05-18T00:30:05.903Z,1009.88
2016-05-18T00:31:05.796Z,1009.87
2016-05-18T00:32:05.440Z,1009.85
2016-05-18T00:33:06.130Z,1009.85
2016-05-18T00:35:05.432Z,1009.89
2016-05-18T00:36:05.419Z,1009.86
2016-05-18T00:37:05.421Z,1009.83
2016-05-18T00:38:05.441Z,1009.84
2016-05-18T00:39:05.411Z,1009.81
2016-05-18T00:40:05.413Z,1009.78
2016-05-18T00:41:06.308Z,1009.77
2016-05-18T00:42:06.013Z,1009.82
2016-05-18T00:43:05.390Z,1009.8
2016-05-18T00:44:05.394Z,1009.85
2016-05-18T00:45:05.380Z,1009.84
2016-05-18T00:46:05.383Z,1009.82
2016-05-18T00:47:05.370Z,1009.75
2016-05-18T00:48:05.373Z,1009.71
2016-05-18T00:49:05.969Z,1009.71
2016-05-18T00:50:05.566Z,1009.74
2016-05-18T00:51:05.350Z,1009.78
2016-05-18T00:52:05.353Z,1009.75
2016-05-18T00:53:05.356Z,1009.75
2016-05-18T00:54:05.342Z,1009.72
2016-05-18T00:55:05.329Z,1009.73
2016-05-18T00:56:05.331Z,1009.72
2016-05-18T00:57:05.334Z,1009.73
2016-05-18T00:58:05.322Z,1009.74
2016-05-18T00:59:05.309Z,1009.74
2016-05-18T01:00:05.311Z,1009.74
2016-05-18T01:01:05.298Z,1009.76
2016-05-18T01:02:05.301Z,1009.73
2016-05-18T01:03:05.303Z,1009.74
2016-05-18T01:04:05.291Z,1009.75
2016-05-18T01:05:05.294Z,1009.72
2016-05-18T01:06:05.281Z,1009.71
2016-05-18T01:07:05.283Z,1009.71
2016-05-18T01:08:05.271Z,1009.69
2016-05-18T01:09:05.274Z,1009.68
2016-05-18T01:10:05.260Z,1009.7
2016-05-18T01:11:05.263Z,1009.68
2016-05-18T01:12:05.249Z,1009.67
2016-05-18T01:13:05.253Z,1009.65
2016-05-18T01:14:05.240Z,1009.67
2016-05-18T01:15:05.242Z,1009.68
2016-05-18T01:16:05.229Z,1009.68
2016-05-18T01:17:05.232Z,1009.69
2016-05-18T01:18:05.219Z,1009.64
2016-05-18T01:19:05.221Z,1009.63
2016-05-18T01:20:05.225Z,1009.64
2016-05-18T01:21:05.212Z,1009.65
2016-05-18T01:22:05.199Z,1009.62
2016-05-18T01:23:05.436Z,1009.61
2016-05-18T01:24:05.203Z,1009.63
2016-05-18T01:25:05.192Z,1009.67
2016-05-18T01:26:05.194Z,1009.63
2016-05-18T01:27:05.181Z,1009.66
2016-05-18T01:28:05.184Z,1009.65
2016-05-18T01:29:05.170Z,1009.62
2016-05-18T01:30:05.173Z,1009.61
2016-05-18T01:31:05.160Z,1009.61
2016-05-18T01:32:05.164Z,1009.59
2016-05-18T01:33:05.150Z,1009.6
2016-05-18T01:34:05.153Z,1009.57
2016-05-18T01:35:05.139Z,1009.53
2016-05-18T01:36:05.142Z,1009.56
2016-05-18T01:37:05.130Z,1009.56
2016-05-18T01:38:05.132Z,1009.57
2016-05-18T01:39:05.135Z,1009.51
2016-05-18T01:40:05.122Z,1009.52
2016-05-18T01:41:05.125Z,1009.51
2016-05-18T01:42:05.112Z,1009.51
2016-05-18T01:43:05.115Z,1009.52
2016-05-18T01:44:05.102Z,1009.49
2016-05-18T01:45:05.104Z,1009.54
2016-05-18T01:46:05.091Z,1009.49
2016-05-18T01:47:05.094Z,1009.49
2016-05-18T01:48:05.207Z,1009.45
2016-05-18T01:49:05.084Z,1009.48
2016-05-18T01:50:05.084Z,1009.46
2016-05-18T01:51:05.071Z,1009.48
2016-05-18T01:52:05.560Z,1009.48
2016-05-18T01:53:05.392Z,1009.47
2016-05-18T01:54:05.063Z,1009.47
2016-05-18T01:55:05.050Z,1009.53
2016-05-18T01:56:05.053Z,1009.51
2016-05-18T01:57:05.087Z,1009.51
2016-05-18T01:58:05.043Z,1009.52
2016-05-18T01:59:05.030Z,1009.5
2016-05-18T02:00:05.033Z,1009.47
2016-05-18T02:01:05.397Z,1009.44
2016-05-18T02:02:05.022Z,1009.42
2016-05-18T02:03:05.010Z,1009.33
2016-05-18T02:04:05.012Z,1009.35
2016-05-18T02:05:05.014Z,1009.31
2016-05-18T02:06:05.002Z,1009.31
2016-05-18T02:07:04.989Z,1009.32
2016-05-18T02:08:05.650Z,1009.29
2016-05-18T02:09:04.994Z,1009.27
2016-05-18T02:10:04.981Z,1009.27
2016-05-18T02:11:04.983Z,1009.22
2016-05-18T02:12:04.972Z,1009.2
2016-05-18T02:13:04.974Z,1009.25
2016-05-18T02:14:04.960Z,1009.28
2016-05-18T02:15:04.964Z,1009.26
2016-05-18T02:16:04.951Z,1009.24
2016-05-18T02:17:04.954Z,1009.24
2016-05-18T02:18:04.940Z,1009.26
2016-05-18T02:19:04.943Z,1009.24
2016-05-18T02:20:04.946Z,1009.26
2016-05-18T02:21:04.932Z,1009.29
2016-05-18T02:22:04.935Z,1009.25
2016-05-18T02:23:05.235Z,1009.34
2016-05-18T02:24:04.926Z,1009.31
2016-05-18T02:25:04.912Z,1009.36
2016-05-18T02:26:04.915Z,1009.34
2016-05-18T02:27:04.902Z,1009.37
2016-05-18T02:28:04.904Z,1009.37
2016-05-18T02:29:04.892Z,1009.37
2016-05-18T02:30:04.894Z,1009.34
2016-05-18T02:31:04.882Z,1009.33
2016-05-18T02:32:04.884Z,1009.27
2016-05-18T02:33:04.887Z,1009.2
2016-05-18T02:34:04.874Z,1009.13
2016-05-18T02:35:04.877Z,1009.15
2016-05-18T02:36:04.864Z,1009.16
2016-05-18T02:37:04.867Z,1009.15
2016-05-18T02:38:04.853Z,1009.14
2016-05-18T02:39:04.856Z,1009.14
2016-05-18T02:40:04.844Z,1009.12
2016-05-18T02:41:04.846Z,1009.12
2016-05-18T02:42:04.833Z,1009.09
2016-05-18T02:43:04.852Z,1009.09
2016-05-18T02:44:04.822Z,1009.04
2016-05-18T02:45:04.825Z,1009.02
2016-05-18T02:46:04.827Z,1009.05
2016-05-18T02:47:04.816Z,1009.05
2016-05-18T02:48:04.818Z,1009.03
2016-05-18T02:49:04.821Z,1008.98
2016-05-18T02:50:04.807Z,1009.02
2016-05-18T02:51:04.811Z,1009.04
2016-05-18T02:52:04.798Z,1009.04
2016-05-18T02:53:04.800Z,1009.05
2016-05-18T02:54:04.788Z,1009.04
2016-05-18T02:55:04.790Z,1009.02
2016-05-18T02:56:04.776Z,1009.08
2016-05-18T02:57:04.779Z,1009.06
2016-05-18T02:58:04.767Z,1009.03
2016-05-18T02:59:04.770Z,1009.1
2016-05-18T03:00:04.756Z,1009.12
2016-05-18T03:01:04.759Z,1009.14
2016-05-18T03:02:04.746Z,1009.09
2016-05-18T03:03:04.748Z,1009.12
2016-05-18T03:04:04.751Z,1009.12
2016-05-18T03:05:04.739Z,1009.12
2016-05-18T03:06:04.742Z,1009.09
2016-05-18T03:07:04.728Z,1009.11
2016-05-18T03:08:04.731Z,1009.09
2016-05-18T03:09:04.718Z,1009.1
2016-05-18T03:10:04.721Z,1009.08
2016-05-18T03:11:04.849Z,1009.07
2016-05-18T03:12:05.054Z,1009.1
2016-05-18T03:14:04.700Z,1009.1
2016-05-18T03:15:04.702Z,1009.1
2016-05-18T03:16:05.299Z,1009.09
2016-05-18T03:17:06.036Z,1009.07
2016-05-18T03:18:05.633Z,1009.05
2016-05-18T03:19:04.682Z,1009.03
2016-05-18T03:20:05.342Z,1009.06
2016-05-18T03:21:04.672Z,1009.02
2016-05-18T03:22:04.659Z,1009.05
2016-05-18T03:23:04.662Z,1008.98
2016-05-18T03:24:04.648Z,1008.99
2016-05-18T03:25:04.652Z,1008.95
2016-05-18T03:26:04.639Z,1008.9
2016-05-18T03:27:04.642Z,1008.91
2016-05-18T03:28:04.629Z,1008.85
2016-05-18T03:29:04.631Z,1008.81
2016-05-18T03:30:04.634Z,1008.79
2016-05-18T03:31:04.621Z,1008.8
2016-05-18T03:32:04.624Z,1008.81
2016-05-18T03:33:04.611Z,1008.82
2016-05-18T03:34:04.614Z,1008.84
2016-05-18T03:35:04.616Z,1008.83
2016-05-18T03:36:04.603Z,1008.83
2016-05-18T03:37:04.590Z,1008.82
2016-05-18T03:38:04.592Z,1008.83
2016-05-18T03:39:04.581Z,1008.83
2016-05-18T03:40:04.582Z,1008.86
2016-05-18T03:41:04.585Z,1008.87
2016-05-18T03:42:04.572Z,1008.98
2016-05-18T03:43:04.575Z,1009.01
2016-05-18T03:44:04.563Z,1009.04
2016-05-18T03:45:04.566Z,1009.07
2016-05-18T03:46:04.552Z,1009.08
2016-05-18T03:47:04.555Z,1009.12
2016-05-18T03:48:04.542Z,1009.13
2016-05-18T03:49:04.544Z,1009.17
2016-05-18T03:50:04.532Z,1009.2
2016-05-18T03:51:04.535Z,1009.16
2016-05-18T03:52:04.521Z,1009.18
2016-05-18T03:53:04.524Z,1009.21
2016-05-18T03:54:04.526Z,1009.19
2016-05-18T03:55:04.514Z,1009.17
2016-05-18T03:56:04.516Z,1009.14
2016-05-18T03:57:04.504Z,1009.13
2016-05-18T03:58:04.507Z,1009.1
2016-05-18T03:59:04.493Z,1009.09
2016-05-18T04:00:04.496Z,1009.12
2016-05-18T04:01:04.483Z,1009.16
2016-05-18T04:02:04.486Z,1009.19
2016-05-18T04:03:04.473Z,1009.21
2016-05-18T04:04:04.476Z,1009.19
2016-05-18T04:05:04.478Z,1009.14
2016-05-18T04:06:04.465Z,1009.15
2016-05-18T04:07:04.468Z,1009.16
2016-05-18T04:08:04.455Z,1009.1
2016-05-18T04:09:04.458Z,1009.13
2016-05-18T04:10:04.445Z,1009.19
2016-05-18T04:11:04.447Z,1009.21
2016-05-18T04:12:04.450Z,1009.22
2016-05-18T04:13:04.437Z,1009.25
2016-05-18T04:14:04.440Z,1009.19
2016-05-18T04:15:04.427Z,1009.2
2016-05-18T04:16:04.430Z,1009.22
2016-05-18T04:17:04.416Z,1009.24
2016-05-18T04:18:04.419Z,1009.2
2016-05-18T04:19:04.422Z,1009.22
2016-05-18T04:20:04.409Z,1009.25
2016-05-18T04:21:04.413Z,1009.3
2016-05-18T04:22:04.399Z,1009.38
2016-05-18T04:23:04.402Z,1009.39
2016-05-18T04:24:04.388Z,1009.42
2016-05-18T04:25:05.969Z,1009.4
2016-05-18T04:26:04.863Z,1009.34
2016-05-18T04:27:04.381Z,1009.29
2016-05-18T04:28:04.385Z,1009.24
2016-05-18T04:29:04.371Z,1009.23
2016-05-18T04:30:04.373Z,1009.21
2016-05-18T04:31:04.376Z,1009.22
2016-05-18T04:32:04.362Z,1009.18
2016-05-18T04:33:04.365Z,1009.15
2016-05-18T04:34:05.447Z,1009.19
2016-05-18T04:35:06.028Z,1009.22
2016-05-18T04:36:04.343Z,1009.23
2016-05-18T04:37:04.346Z,1009.18
2016-05-18T04:38:04.348Z,1009.18
2016-05-18T04:39:04.898Z,1009.17
2016-05-18T04:40:04.339Z,1009.18
2016-05-18T04:41:05.387Z,1009.19
2016-05-18T04:42:04.328Z,1009.18
2016-05-18T04:43:04.330Z,1009.22
2016-05-18T04:44:04.317Z,1009.21
2016-05-18T04:45:04.570Z,1009.21
2016-05-18T04:46:04.308Z,1009.23
2016-05-18T04:47:04.310Z,1009.23
2016-05-18T04:48:04.313Z,1009.22
2016-05-18T04:49:04.299Z,1009.24
2016-05-18T04:50:04.302Z,1009.18
2016-05-18T04:51:04.305Z,1009.16
2016-05-18T04:52:04.292Z,1009.18
2016-05-18T04:53:04.514Z,1009.25
2016-05-18T04:54:04.297Z,1009.39
2016-05-18T04:55:04.285Z,1009.51
2016-05-18T04:56:04.287Z,1009.6
2016-05-18T04:57:04.274Z,1009.54
2016-05-18T04:58:04.276Z,1009.46
2016-05-18T04:59:04.280Z,1009.48
2016-05-18T05:00:04.267Z,1009.42
2016-05-18T05:01:04.270Z,1009.39
2016-05-18T05:02:04.273Z,1009.33
2016-05-18T05:03:04.259Z,1009.28
2016-05-18T05:04:04.262Z,1009.28
2016-05-18T05:05:04.264Z,1009.27
2016-05-18T05:06:04.251Z,1009.24
2016-05-18T05:07:04.254Z,1009.25
2016-05-18T05:08:04.256Z,1009.31
2016-05-18T05:09:04.244Z,1009.38
2016-05-18T05:10:04.248Z,1009.43
2016-05-18T05:11:04.249Z,1009.5
2016-05-18T05:12:04.236Z,1009.58
2016-05-18T05:13:04.239Z,1009.72
2016-05-18T05:14:04.242Z,1009.8
2016-05-18T05:15:04.228Z,1010.07
2016-05-18T05:16:04.231Z,1010.18
2016-05-18T05:17:04.234Z,1010.16
2016-05-18T05:18:04.222Z,1010.14
2016-05-18T05:19:04.225Z,1010.03
2016-05-18T05:20:04.227Z,1010.08
2016-05-18T05:21:04.229Z,1009.83
2016-05-18T05:22:04.216Z,1009.76
2016-05-18T05:23:04.219Z,1009.74
2016-05-18T05:24:04.222Z,1009.64
2016-05-18T05:25:04.225Z,1009.54
2016-05-18T05:26:04.227Z,1009.5
2016-05-18T05:27:04.215Z,1009.36
2016-05-18T05:28:04.217Z,1009.35
2016-05-18T05:29:04.221Z,1009.41
2016-05-18T05:30:04.223Z,1009.53
2016-05-18T05:31:04.209Z,1009.66
2016-05-18T05:32:04.228Z,1009.84
2016-05-18T05:33:04.231Z,1009.82
2016-05-18T05:34:04.218Z,1009.78
2016-05-18T05:35:04.220Z,1009.62
2016-05-18T05:36:04.223Z,1009.6
2016-05-18T05:37:04.225Z,1009.63
2016-05-18T05:38:04.229Z,1009.65
2016-05-18T05:39:04.215Z,1009.74
2016-05-18T05:40:04.234Z,1009.78
2016-05-18T05:41:04.221Z,1009.81
2016-05-18T05:42:04.223Z,1009.81
2016-05-18T05:43:04.226Z,1009.85
2016-05-18T05:44:04.228Z,1009.94
2016-05-18T05:45:04.231Z,1009.98
2016-05-18T05:46:04.234Z,1009.97
2016-05-18T05:47:04.580Z,1010.1
2016-05-18T05:48:04.224Z,1010.19
2016-05-18T05:49:04.227Z,1010.23
2016-05-18T05:50:04.244Z,1010.6
2016-05-18T05:51:04.232Z,1010.44
2016-05-18T05:52:04.235Z,1010.61
2016-05-18T05:53:04.643Z,1010.43
2016-05-18T05:54:04.302Z,1009.65
2016-05-18T05:55:04.290Z,1009.5
2016-05-18T05:56:04.246Z,1009.52
2016-05-18T05:57:04.249Z,1009.45
2016-05-18T05:58:04.252Z,1009.45
2016-05-18T05:59:04.613Z,1009.43
2016-05-18T06:00:04.506Z,1009.59
2016-05-18T06:01:04.259Z,1009.74
2016-05-18T06:02:04.262Z,1009.95
2016-05-18T06:03:04.265Z,1010.15
2016-05-18T06:04:04.267Z,1010.36
2016-05-18T06:05:04.270Z,1009.95
2016-05-18T06:06:04.273Z,1009.91
2016-05-18T06:07:04.275Z,1009.76
2016-05-18T06:08:04.278Z,1009.77
2016-05-18T06:09:04.296Z,1009.75
2016-05-18T06:10:04.283Z,1009.85
2016-05-18T06:11:04.286Z,1009.96
2016-05-18T06:12:04.289Z,1009.97
2016-05-18T06:13:04.291Z,1010.07
2016-05-18T06:14:04.294Z,1009.75
2016-05-18T06:15:04.296Z,1010.21
2016-05-18T06:16:04.299Z,1009.74
2016-05-18T06:17:04.318Z,1009.85
2016-05-18T06:18:04.320Z,1009.92
2016-05-18T06:19:04.322Z,1009.79
2016-05-18T06:20:04.325Z,1009.92
2016-05-18T06:21:04.328Z,1009.96
2016-05-18T06:22:04.331Z,1009.92
2016-05-18T06:23:04.333Z,1009.85
2016-05-18T06:24:04.336Z,1010.09
2016-05-18T06:25:04.339Z,1009.78
2016-05-18T06:26:04.341Z,1010.08
2016-05-18T06:27:04.344Z,1010.5
2016-05-18T06:28:04.347Z,1010.35
2016-05-18T06:29:04.349Z,1010.48
2016-05-18T06:30:04.368Z,1010.53
2016-05-18T06:31:04.371Z,1010.55
2016-05-18T06:32:04.373Z,1010.62
2016-05-18T06:33:04.376Z,1010.64
2016-05-18T06:34:04.379Z,1010.67
2016-05-18T06:35:04.398Z,1010.65
2016-05-18T06:36:04.401Z,1010.71
2016-05-18T06:37:04.403Z,1010.82
2016-05-18T06:38:04.421Z,1010.76
2016-05-18T06:39:04.423Z,1010.52
2016-05-18T06:40:04.426Z,1010.32
2016-05-18T06:41:04.445Z,1010.39
2016-05-18T06:42:04.448Z,1010.36
2016-05-18T06:43:04.465Z,1010.76
2016-05-18T06:44:04.467Z,1010.73
2016-05-18T06:45:04.470Z,1010.64
2016-05-18T06:46:04.489Z,1010.85
2016-05-18T06:47:04.492Z,1010.57
2016-05-18T06:48:04.510Z,1010.37
2016-05-18T06:49:04.514Z,1010.34
2016-05-18T06:50:04.531Z,1010.2
2016-05-18T06:51:04.534Z,1010.02
2016-05-18T06:52:04.553Z,1009.89
2016-05-18T06:53:04.571Z,1009.92
2016-05-18T06:54:04.574Z,1009.9
2016-05-18T06:55:04.592Z,1009.9
2016-05-18T06:56:04.594Z,1009.74
2016-05-18T06:57:04.613Z,1009.69
2016-05-18T06:58:04.616Z,1009.7
2016-05-18T06:59:04.618Z,1009.77
2016-05-18T07:00:04.636Z,1009.83
2016-05-18T07:01:04.655Z,1009.99
2016-05-18T07:02:04.657Z,1009.82
2016-05-18T07:03:04.660Z,1010.43
2016-05-18T07:04:05.866Z,1010.42
2016-05-18T07:05:05.462Z,1010.53
2016-05-18T07:06:04.699Z,1010.5
2016-05-18T07:07:04.905Z,1010.51
2016-05-18T07:08:05.923Z,1010.56
2016-05-18T07:09:04.723Z,1010.64
2016-05-18T07:10:04.742Z,1010.67
2016-05-18T07:11:04.745Z,1010.73
2016-05-18T07:12:05.247Z,1010.75
2016-05-18T07:13:05.078Z,1010.74
2016-05-18T07:14:04.783Z,1010.74
2016-05-18T07:15:04.787Z,1010.81
2016-05-18T07:16:04.804Z,1010.78
2016-05-18T07:17:04.807Z,1010.78
2016-05-18T07:18:04.825Z,1010.8
2016-05-18T07:19:04.844Z,1010.79
2016-05-18T07:20:04.847Z,1010.8
2016-05-18T07:22:04.883Z,1010.84
2016-05-18T07:23:04.886Z,1010.84
2016-05-18T07:24:04.904Z,1010.86
2016-05-18T07:25:05.016Z,1010.82
2016-05-18T07:26:04.941Z,1010.8
2016-05-18T07:27:04.944Z,1010.76
2016-05-18T07:28:04.961Z,1010.79
2016-05-18T07:29:04.980Z,1010.77
2016-05-18T07:30:04.999Z,1010.76
2016-05-18T07:31:05.033Z,1010.76
2016-05-18T07:32:05.020Z,1010.8
2016-05-18T07:33:05.038Z,1010.81
2016-05-18T07:34:05.056Z,1010.75
2016-05-18T07:35:05.074Z,1010.76
2016-05-18T07:36:05.093Z,1010.78
2016-05-18T07:37:05.096Z,1010.75
2016-05-18T07:38:05.113Z,1010.68
2016-05-18T07:39:05.132Z,1010.64
2016-05-18T07:40:05.150Z,1010.68
2016-05-18T07:41:05.169Z,1010.68
2016-05-18T07:42:05.187Z,1010.71
2016-05-18T07:43:05.190Z,1010.73
2016-05-18T07:44:05.223Z,1010.7
2016-05-18T07:45:05.226Z,1010.64
2016-05-18T07:46:05.245Z,1010.66
2016-05-18T07:47:05.263Z,1010.68
2016-05-18T07:48:05.281Z,1010.69
2016-05-18T07:49:05.300Z,1010.66
2016-05-18T07:50:05.317Z,1010.63
2016-05-18T07:51:05.336Z,1010.59
2016-05-18T07:52:05.355Z,1010.56
2016-05-18T07:53:05.372Z,1010.55
2016-05-18T07:54:05.391Z,1010.54
2016-05-18T07:55:05.409Z,1010.45
2016-05-18T07:56:05.428Z,1010.42
2016-05-18T07:57:05.446Z,1010.39
2016-05-18T07:58:05.464Z,1010.39
2016-05-18T07:59:05.482Z,1010.36
2016-05-18T08:00:05.517Z,1010.34
2016-05-18T08:01:05.520Z,1010.37
2016-05-18T08:02:05.538Z,1010.34
2016-05-18T08:03:05.556Z,1010.35
2016-05-18T08:04:05.574Z,1010.41
2016-05-18T08:05:05.593Z,1010.39
2016-05-18T08:06:05.611Z,1010.34
2016-05-18T08:07:05.645Z,1010.36
2016-05-18T08:08:05.663Z,1010.34
2016-05-18T08:09:05.682Z,1010.31
2016-05-18T08:10:05.700Z,1010.36
2016-05-18T08:11:05.718Z,1010.37
2016-05-18T08:12:05.737Z,1010.33
2016-05-18T08:13:05.754Z,1010.32
2016-05-18T08:14:05.773Z,1010.31
2016-05-18T08:15:05.792Z,1010.28
2016-05-18T08:16:05.809Z,1010.21
2016-05-18T08:17:05.843Z,1010.16
2016-05-18T08:18:05.861Z,1010.14
2016-05-18T08:19:05.880Z,1010.16
2016-05-18T08:20:05.898Z,1010.13
2016-05-18T08:22:05.936Z,1009.99
2016-05-18T08:23:05.954Z,1010
2016-05-18T08:24:05.972Z,1009.97
2016-05-18T08:25:05.990Z,1009.98
2016-05-18T08:26:06.009Z,1009.98
2016-05-18T08:27:06.199Z,1009.98
2016-05-18T08:28:06.055Z,1009.9
2016-05-18T08:29:06.117Z,1009.89
2016-05-18T08:31:06.237Z,1009.9
2016-05-18T08:32:06.298Z,1009.86
2016-05-18T08:33:06.367Z,1009.8
2016-05-18T08:34:06.385Z,1009.77
2016-05-18T08:35:06.420Z,1009.76
2016-05-18T08:36:06.452Z,1009.76
2016-05-18T08:37:07.143Z,1009.77
2016-05-18T08:38:07.033Z,1009.68
2016-05-18T08:39:06.541Z,1009.7
2016-05-18T08:40:06.565Z,1009.69
2016-05-18T08:41:06.588Z,1009.74
2016-05-18T08:42:06.612Z,1009.7
2016-05-18T08:43:06.636Z,1009.56
2016-05-18T08:44:06.656Z,1009.4
2016-05-18T08:45:06.677Z,1009.3
2016-05-18T08:46:06.682Z,1009.27
2016-05-18T08:47:06.703Z,1009.25
2016-05-18T08:48:06.722Z,1009.19
2016-05-18T08:49:06.742Z,1009.23
2016-05-18T08:50:06.760Z,1009.18
2016-05-18T08:51:06.763Z,1009.19
2016-05-18T08:52:06.783Z,1009.19
2016-05-18T08:53:07.192Z,1009.19
2016-05-18T08:54:06.805Z,1009.21
2016-05-18T08:55:06.823Z,1009.17
2016-05-18T08:56:06.842Z,1009.16
2016-05-18T08:57:06.860Z,1009.11
2016-05-18T08:58:06.863Z,1009.11
2016-05-18T08:59:06.880Z,1009.15
2016-05-18T09:01:06.902Z,1009.16
2016-05-18T09:02:06.904Z,1009.12
2016-05-18T09:03:06.907Z,1009.15
2016-05-18T09:04:06.925Z,1009.11
2016-05-18T09:05:06.944Z,1009.07
2016-05-18T09:06:06.946Z,1009.01
2016-05-18T09:07:06.965Z,1009.07
2016-05-18T09:08:07.357Z,1009.1
2016-05-18T09:09:06.970Z,1009.01
2016-05-18T09:10:06.988Z,1009.01
2016-05-18T09:11:06.991Z,1008.97
2016-05-18T09:12:06.993Z,1008.96
2016-05-18T09:13:07.012Z,1008.97
2016-05-18T09:14:07.015Z,1008.98
2016-05-18T09:15:07.017Z,1008.94
2016-05-18T09:16:07.036Z,1009.02
2016-05-18T09:17:07.039Z,1009.03
2016-05-18T09:18:07.042Z,1008.99
2016-05-18T09:19:07.059Z,1008.82
2016-05-18T09:20:07.062Z,1008.92
2016-05-18T09:21:07.080Z,1008.87
2016-05-18T09:22:07.067Z,1008.91
2016-05-18T09:23:07.086Z,1008.85
2016-05-18T09:24:07.089Z,1008.86
2016-05-18T09:25:07.091Z,1008.91
2016-05-18T09:26:07.094Z,1008.88
2016-05-18T09:27:07.112Z,1008.87
2016-05-18T09:28:07.114Z,1008.79
2016-05-18T09:29:07.117Z,1008.79
2016-05-18T09:30:07.119Z,1008.8
2016-05-18T09:31:07.138Z,1008.8
2016-05-18T09:32:07.141Z,1008.82
2016-05-18T09:33:07.144Z,1008.76
2016-05-18T09:34:07.146Z,1008.78
2016-05-18T09:35:07.165Z,1008.73
2016-05-18T09:36:07.168Z,1008.76
2016-05-18T09:37:07.170Z,1008.74
2016-05-18T09:38:07.173Z,1008.79
2016-05-18T09:39:07.176Z,1008.79
2016-05-18T09:40:08.929Z,1008.75
2016-05-18T09:41:08.509Z,1008.74
2016-05-18T09:42:07.199Z,1008.75
2016-05-18T09:43:08.029Z,1008.73
2016-05-18T09:44:08.001Z,1008.72
2016-05-18T09:45:07.207Z,1008.77
2016-05-18T09:46:07.226Z,1008.8
2016-05-18T09:47:07.275Z,1008.8
2016-05-18T09:48:07.231Z,1008.73
2016-05-18T09:49:07.234Z,1008.72
2016-05-18T09:50:07.236Z,1008.8
2016-05-18T09:51:08.395Z,1008.78
2016-05-18T09:52:07.836Z,1008.82
2016-05-18T09:53:07.261Z,1008.83
2016-05-18T09:54:07.263Z,1008.79
2016-05-18T09:55:08.062Z,1008.69
2016-05-18T09:56:07.269Z,1008.66
2016-05-18T09:57:07.272Z,1008.63
2016-05-18T09:58:07.289Z,1008.58
2016-05-18T09:59:07.292Z,1008.62
2016-05-18T10:00:07.294Z,1008.57
2016-05-18T10:01:07.297Z,1008.46
2016-05-18T10:02:07.300Z,1008.65
2016-05-18T10:03:07.319Z,1008.68
2016-05-18T10:04:07.321Z,1008.61
2016-05-18T10:05:07.324Z,1008.66
2016-05-18T10:06:07.327Z,1008.74
2016-05-18T10:07:07.329Z,1008.71
2016-05-18T10:08:07.347Z,1008.66
2016-05-18T10:09:07.350Z,1008.64
2016-05-18T10:10:07.352Z,1008.62
2016-05-18T10:11:07.355Z,1008.56
2016-05-18T10:12:07.358Z,1008.56
2016-05-18T10:13:07.360Z,1008.59
2016-05-18T10:14:07.363Z,1008.55
2016-05-18T10:15:07.382Z,1008.53
2016-05-18T10:16:07.384Z,1008.49
2016-05-18T10:17:07.387Z,1008.51
2016-05-18T10:18:07.406Z,1008.49
2016-05-18T10:19:07.393Z,1008.5
2016-05-18T10:20:07.411Z,1008.46
2016-05-18T10:21:07.414Z,1008.44
2016-05-18T10:22:07.417Z,1008.48
2016-05-18T10:23:07.434Z,1008.47
2016-05-18T10:24:07.437Z,1008.5
2016-05-18T10:25:07.440Z,1008.49
2016-05-18T10:26:07.442Z,1008.51
2016-05-18T10:27:07.461Z,1008.44
2016-05-18T10:28:07.464Z,1008.44
2016-05-18T10:29:07.450Z,1008.51
2016-05-18T10:30:07.469Z,1008.55
2016-05-18T10:31:07.472Z,1008.54
2016-05-18T10:32:07.475Z,1008.44
2016-05-18T10:33:07.493Z,1008.41
2016-05-18T10:34:07.496Z,1008.37
2016-05-18T10:35:07.499Z,1008.41
2016-05-18T10:36:07.502Z,1008.42
2016-05-18T10:37:07.519Z,1008.4
2016-05-18T10:38:07.521Z,1008.36
2016-05-18T10:39:07.524Z,1008.43
2016-05-18T10:40:07.527Z,1008.44
2016-05-18T10:41:07.546Z,1008.44
2016-05-18T10:42:07.549Z,1008.45
2016-05-18T10:43:07.551Z,1008.48
2016-05-18T10:44:07.554Z,1008.48
2016-05-18T10:45:07.572Z,1008.47
2016-05-18T10:46:07.574Z,1008.51
2016-05-18T10:47:07.577Z,1008.48
2016-05-18T10:48:07.580Z,1008.51
2016-05-18T10:49:07.599Z,1008.52
2016-05-18T10:50:07.601Z,1008.48
2016-05-18T10:51:07.603Z,1008.47
2016-05-18T10:52:07.607Z,1008.41
2016-05-18T10:53:07.625Z,1008.32
2016-05-18T10:54:07.628Z,1008.25
2016-05-18T10:55:07.631Z,1008.29
2016-05-18T10:56:07.648Z,1008.28
2016-05-18T10:57:07.667Z,1008.31
2016-05-18T10:58:07.654Z,1008.32
2016-05-18T11:00:08.081Z,1008.2
2016-05-18T11:01:08.912Z,1008.18
2016-05-18T11:02:07.681Z,1008.2
2016-05-18T11:03:07.699Z,1008.17
2016-05-18T11:04:07.702Z,1008.07
2016-05-18T11:05:08.047Z,1008.14
2016-05-18T11:07:07.710Z,1008.04
2016-05-18T11:08:07.728Z,1008.07
2016-05-18T11:09:07.730Z,1008.08
2016-05-18T11:10:07.732Z,1008.09
2016-05-18T11:11:07.752Z,1008.13
2016-05-18T11:12:07.754Z,1008.19
2016-05-18T11:13:07.757Z,1008.22
2016-05-18T11:14:07.760Z,1008.24
2016-05-18T11:15:07.777Z,1008.33
2016-05-18T11:16:07.779Z,1008.4
2016-05-18T11:17:07.783Z,1008.4
2016-05-18T11:18:07.801Z,1008.39
2016-05-18T11:19:07.820Z,1008.45
2016-05-18T11:20:07.806Z,1008.39
2016-05-18T11:21:07.809Z,1008.42
2016-05-18T11:22:07.828Z,1008.41
2016-05-18T11:23:08.237Z,1008.46
2016-05-18T11:24:07.848Z,1008.42
2016-05-18T11:25:07.883Z,1008.44
2016-05-18T11:26:07.854Z,1008.41
2016-05-18T11:27:07.856Z,1008.41
2016-05-18T11:28:07.876Z,1008.42
2016-05-18T11:29:07.878Z,1008.41
2016-05-18T11:30:07.880Z,1008.37
2016-05-18T11:31:07.883Z,1008.35
2016-05-18T11:32:07.902Z,1008.37
2016-05-18T11:33:07.919Z,1008.36
2016-05-18T11:34:07.922Z,1008.33
2016-05-18T11:35:07.925Z,1008.33
2016-05-18T11:36:07.928Z,1008.3
2016-05-18T11:37:07.930Z,1008.28
2016-05-18T11:38:08.355Z,1008.29
2016-05-18T11:39:07.952Z,1008.27
2016-05-18T11:40:07.954Z,1008.3
2016-05-18T11:41:07.972Z,1008.33
2016-05-18T11:42:07.975Z,1008.35
2016-05-18T11:43:07.978Z,1008.28
2016-05-18T11:44:07.996Z,1008.29
2016-05-18T11:45:07.999Z,1008.29
2016-05-18T11:46:08.001Z,1008.19
2016-05-18T11:47:08.020Z,1008.17
2016-05-18T11:48:08.023Z,1008.14
2016-05-18T11:49:08.040Z,1008.08
2016-05-18T11:50:08.044Z,1008.08
2016-05-18T11:51:08.046Z,1008.08
2016-05-18T11:52:08.064Z,1008.03
2016-05-18T11:53:08.224Z,1008
2016-05-18T11:54:08.070Z,1008.01
2016-05-18T11:55:08.089Z,1007.92
2016-05-18T11:56:08.091Z,1007.91
2016-05-18T11:57:08.109Z,1007.83
2016-05-18T11:58:08.112Z,1007.82
2016-05-18T11:59:08.114Z,1007.85
2016-05-18T12:00:08.133Z,1007.77
2016-05-18T12:01:08.136Z,1007.83
2016-05-18T12:02:08.138Z,1007.82
2016-05-18T12:03:08.156Z,1007.85
2016-05-18T12:04:08.159Z,1007.9
2016-05-18T12:05:08.178Z,1007.92
2016-05-18T12:06:08.180Z,1007.82
2016-05-18T12:07:08.183Z,1007.82
2016-05-18T12:08:08.202Z,1007.82
2016-05-18T12:09:08.204Z,1007.72
2016-05-18T12:10:08.207Z,1007.68
2016-05-18T12:11:08.225Z,1007.64
2016-05-18T12:12:08.244Z,1007.6
2016-05-18T12:13:08.246Z,1007.67
2016-05-18T12:14:08.249Z,1007.71
2016-05-18T12:15:08.251Z,1007.68
2016-05-18T12:16:08.270Z,1007.66